Airfield :
LOGIN :

Register | Disclaimer

   EN    FR    IT 

 










Legend :    VFR   Marginal VFR   IFR   Intensive IFR   Very Intensive IFR
Visi :
Ceiling :
>= 8 km
>= 3000ft
5 to 8 km
1000 to 3000 ft
1500m to 5 km
500 to 1000 ft
800 to 1500m
200 to 500 ft
< 800m
< 200 ft
Symbols :   Thunderstorms  Fog  Heavy snow  Heavy precipitations  Wind > 20 kt
SIGMETs :     Misc.  Thunderstorms  Icing  Turbulence  Mountain Waves  Volcanic Ashes







- Airport Elevation : 14 ft
- IATA code : BRE


EDDW - Bremen Neuenland

CURRENT METAR :
  • 220020Z AUTO 19006KT 9999 // FEW070/// 10/08 Q1009

EXPIRED METARs :
  • 212350Z AUTO 20007KT 9999 // SCT060/// 11/09 Q1009
  • 212320Z AUTO 21009KT 9999 // FEW038/// BKN090/// 11/09 Q1010
  • 212250Z AUTO 21007KT 9999 // FEW100/// 11/09 Q1010
  • 212220Z 20007KT CAVOK 10/09 Q1010
  • 212150Z 17005KT 9999 MIFG NSC 10/09 Q1010

TAF TAF EDDW
Valid from the 22 at 00:00 until the 23 at 00:00 UTC


212300Z 2200/2224 18008KT 9999 FEW020
BECMG 2207/2209 BKN012
PROB40
TEMPO 2209/2212 20015G30KT 4000 RA BKN008
BECMG 2211/2213 SCT020
BECMG 2220/2222 BKN012
PROB30
TEMPO 2222/2224 BKN008
No reported NOTAMs for that airfield.



MET'MAP, your aeronautical weather chart ! - Copyright ORBIFLY December 2007 - Disclaimer

ORBIFLY MET'MAP TEAM :

Programming & Development : Alexandra Zaïnal
Concept & Development : Baudouin d'Aumeries
Co-Development & Prog : Marc-Olivier Méhu
Technical & hardware support : Manuel Goepfert

Contact : metmap@orbifly.com




SOURCES & CREDITS :

   NOAA